Time;durP1;ratioP1;P1;durP2;ratioP2;P2;SDS_P1;SDS_P2;PMS_P1;PMS_P2;Temp;Humidity;BMP_temperature;BMP_pressure;BME280_temperature;BME280_humidity;BME280_pressure;Samples;Min_cycle;Max_cycle;Signal;HPM_P1;HPM_P2
2021/05/24 00:02:16;;;;;;;1.27;0.80;;;10.90;67.00;;;;;;5028341;28;20880;-76
2021/05/24 00:04:42;;;;;;;2.53;0.77;;;10.90;66.80;;;;;;5028878;28;20387;-74
2021/05/24 00:07:08;;;;;;;2.30;0.75;;;11.10;65.80;;;;;;5113294;27;20778;-75
2021/05/24 00:09:34;;;;;;;5.30;1.00;;;11.30;65.70;;;;;;5114229;27;20387;-75
2021/05/24 00:12:01;;;;;;;1.50;0.70;;;11.00;67.40;;;;;;5028545;28;20379;-74
2021/05/24 00:14:28;;;;;;;2.33;0.70;;;10.80;69.40;;;;;;5028172;28;20399;-74
2021/05/24 00:16:54;;;;;;;3.42;0.80;;;10.90;67.70;;;;;;5028087;28;20672;-75
2021/05/24 00:19:19;;;;;;;2.15;1.00;;;10.90;68.20;;;;;;5028460;28;20383;-73
2021/05/24 00:21:45;;;;;;;2.75;0.93;;;10.90;67.90;;;;;;5026921;28;20427;-73
2021/05/24 00:24:10;;;;;;;2.33;0.60;;;11.10;67.60;;;;;;5028247;28;20376;-75
2021/05/24 00:26:36;;;;;;;2.07;0.90;;;11.20;66.70;;;;;;5028085;28;20403;-74
2021/05/24 00:29:02;;;;;;;3.50;0.70;;;11.20;66.90;;;;;;5027658;28;20421;-73
2021/05/24 00:31:28;;;;;;;1.90;0.70;;;11.10;67.30;;;;;;5028428;28;20892;-75
2021/05/24 00:33:53;;;;;;;2.93;0.83;;;11.10;67.60;;;;;;5028110;28;20730;-75
2021/05/24 00:36:19;;;;;;;1.70;0.53;;;11.10;68.00;;;;;;5112826;27;20732;-75
2021/05/24 00:38:45;;;;;;;3.38;0.73;;;11.10;67.90;;;;;;5027248;28;20375;-74
2021/05/24 00:41:10;;;;;;;1.85;0.73;;;11.00;68.70;;;;;;5027252;28;20437;-73
2021/05/24 00:43:36;;;;;;;1.30;0.70;;;11.00;69.30;;;;;;5113573;27;20379;-76
2021/05/24 00:46:02;;;;;;;1.97;0.60;;;11.00;68.80;;;;;;5113152;27;20434;-75
2021/05/24 00:48:27;;;;;;;2.83;1.03;;;11.00;69.80;;;;;;5027194;28;20440;-75
2021/05/24 00:50:53;;;;;;;3.40;0.90;;;11.10;69.00;;;;;;5027948;28;20414;-75
2021/05/24 00:53:21;;;;;;;2.58;0.60;;;11.10;69.00;;;;;;5028578;28;20379;-75
2021/05/24 00:55:47;;;;;;;2.70;1.00;;;11.10;69.20;;;;;;5026605;28;20871;-74
2021/05/24 00:58:13;;;;;;;1.90;0.60;;;11.00;69.70;;;;;;5027739;28;20474;-74
2021/05/24 01:00:41;;;;;;;5.35;0.80;;;11.00;70.70;;;;;;5113026;27;20387;-74
2021/05/24 01:03:09;;;;;;;2.60;0.73;;;10.90;70.50;;;;;;5113333;27;20395;-74
2021/05/24 01:05:35;;;;;;;1.52;0.85;;;10.90;70.20;;;;;;5027874;28;20439;-75
2021/05/24 01:08:02;;;;;;;4.15;0.68;;;11.10;69.50;;;;;;5027473;28;20383;-75
2021/05/24 01:10:27;;;;;;;3.00;0.88;;;11.10;69.80;;;;;;5028071;28;20379;-75
2021/05/24 01:12:53;;;;;;;3.83;0.80;;;10.90;70.80;;;;;;5027846;28;20371;-74
2021/05/24 01:15:19;;;;;;;1.98;0.60;;;10.90;71.00;;;;;;5027583;28;20443;-74
2021/05/24 01:17:44;;;;;;;2.13;0.60;;;11.00;70.20;;;;;;5027277;28;20368;-75
2021/05/24 01:20:11;;;;;;;3.20;0.90;;;11.10;70.20;;;;;;5028181;28;20367;-75
2021/05/24 01:22:38;;;;;;;1.73;0.70;;;11.10;71.20;;;;;;5027538;28;20375;-76
2021/05/24 01:25:06;;;;;;;3.20;0.93;;;11.20;70.40;;;;;;5027916;28;20383;-74
2021/05/24 01:27:32;;;;;;;2.50;0.75;;;11.10;70.70;;;;;;5026954;28;20395;-74
2021/05/24 01:29:59;;;;;;;1.00;0.60;;;11.30;69.90;;;;;;5027629;28;20387;-74
2021/05/24 01:32:24;;;;;;;1.30;0.60;;;11.30;69.90;;;;;;5112528;28;20852;-74
2021/05/24 01:34:53;;;;;;;1.63;0.60;;;11.40;69.70;;;;;;5027773;28;20383;-75
2021/05/24 01:37:18;;;;;;;3.13;0.70;;;11.40;69.90;;;;;;5027510;28;20542;-74
2021/05/24 01:39:44;;;;;;;4.10;0.80;;;11.50;69.30;;;;;;5027306;28;20620;-74
2021/05/24 01:42:09;;;;;;;2.10;0.70;;;11.50;69.20;;;;;;5027569;28;20390;-74
2021/05/24 01:44:37;;;;;;;3.17;0.70;;;11.50;69.60;;;;;;5027474;28;20811;-74
2021/05/24 01:47:03;;;;;;;2.17;0.80;;;11.50;70.20;;;;;;5027184;28;20399;-75
2021/05/24 01:49:30;;;;;;;5.50;0.75;;;11.50;70.00;;;;;;5030262;28;20432;-75
2021/05/24 01:51:56;;;;;;;1.40;0.60;;;11.40;71.30;;;;;;5031038;28;20475;-76
2021/05/24 01:54:22;;;;;;;1.48;0.70;;;11.30;70.60;;;;;;5116272;27;20467;-75
2021/05/24 01:56:47;;;;;;;1.02;0.70;;;11.40;70.60;;;;;;5030245;28;20387;-75
2021/05/24 01:59:13;;;;;;;2.30;0.73;;;11.30;71.30;;;;;;5030473;28;20371;-75
2021/05/24 02:01:39;;;;;;;3.53;0.97;;;11.40;70.50;;;;;;5030588;28;20525;-74
2021/05/24 02:04:05;;;;;;;2.60;0.80;;;11.20;71.20;;;;;;5030675;28;20376;-75
2021/05/24 02:06:31;;;;;;;1.60;0.70;;;11.30;71.30;;;;;;5030115;28;20724;-74
2021/05/24 02:08:57;;;;;;;1.52;0.70;;;11.20;71.70;;;;;;5028933;28;20387;-74
2021/05/24 02:11:23;;;;;;;1.83;0.70;;;11.10;71.80;;;;;;5030156;28;20379;-74
2021/05/24 02:13:49;;;;;;;1.75;0.80;;;11.10;72.20;;;;;;5030292;28;20391;-75
2021/05/24 02:16:15;;;;;;;1.50;0.65;;;11.20;71.20;;;;;;5030271;28;20371;-74
2021/05/24 02:18:41;;;;;;;1.75;0.60;;;11.30;71.40;;;;;;5030201;28;20386;-74
2021/05/24 02:21:09;;;;;;;2.28;0.73;;;11.20;72.00;;;;;;5029992;28;20496;-75
2021/05/24 02:23:35;;;;;;;2.05;0.60;;;11.10;71.70;;;;;;5030445;28;20375;-76
2021/05/24 02:26:00;;;;;;;1.75;0.70;;;11.20;71.70;;;;;;5028297;28;20413;-75
2021/05/24 02:28:26;;;;;;;2.03;0.90;;;11.20;71.10;;;;;;5030067;28;20387;-74
2021/05/24 02:30:52;;;;;;;1.42;0.55;;;11.10;72.00;;;;;;5030078;28;20460;-76
2021/05/24 02:33:18;;;;;;;1.33;0.70;;;11.10;71.80;;;;;;5115822;27;20855;-75
2021/05/24 02:35:44;;;;;;;2.10;0.80;;;11.10;71.90;;;;;;5030185;28;20521;-75
2021/05/24 02:38:10;;;;;;;1.75;0.70;;;11.10;71.70;;;;;;5029576;28;20415;-74
2021/05/24 02:40:36;;;;;;;1.77;0.60;;;11.10;72.80;;;;;;5115851;27;20451;-74
2021/05/24 02:43:02;;;;;;;1.00;0.60;;;11.00;72.50;;;;;;5029857;28;20739;-76
2021/05/24 02:45:28;;;;;;;1.73;0.70;;;11.00;72.90;;;;;;5030017;28;20410;-75
2021/05/24 02:47:54;;;;;;;4.78;0.90;;;10.90;73.30;;;;;;5028939;28;20470;-74
2021/05/24 02:50:22;;;;;;;1.50;0.70;;;11.10;72.40;;;;;;5030114;28;20379;-75
2021/05/24 02:52:48;;;;;;;1.35;0.68;;;11.10;72.30;;;;;;5029624;28;20371;-75
2021/05/24 02:55:14;;;;;;;1.65;0.60;;;11.10;72.50;;;;;;5115872;27;20384;-75
2021/05/24 02:57:40;;;;;;;2.58;0.77;;;11.00;73.00;;;;;;5029247;28;20380;-76
2021/05/24 03:00:07;;;;;;;2.60;0.67;;;11.10;72.60;;;;;;5029501;28;20448;-74
2021/05/24 03:02:33;;;;;;;2.75;0.60;;;11.10;73.20;;;;;;5115896;27;20384;-76
2021/05/24 03:04:59;;;;;;;2.17;0.68;;;11.10;72.90;;;;;;5030076;28;20741;-74
2021/05/24 03:07:24;;;;;;;4.70;0.80;;;11.10;73.00;;;;;;5029833;28;20398;-75
2021/05/24 03:09:50;;;;;;;1.67;0.60;;;10.90;73.50;;;;;;5029563;28;20383;-75
2021/05/24 03:12:16;;;;;;;2.42;0.80;;;11.00;73.60;;;;;;5115674;27;20471;-74
2021/05/24 03:14:41;;;;;;;1.10;0.53;;;10.90;74.00;;;;;;5029823;28;20413;-75
2021/05/24 03:17:07;;;;;;;3.17;0.90;;;11.00;72.90;;;;;;5115158;27;20451;-75
2021/05/24 03:19:33;;;;;;;2.77;0.67;;;11.10;72.90;;;;;;5029686;28;20411;-75
2021/05/24 03:21:58;;;;;;;2.80;0.57;;;11.10;73.60;;;;;;5029872;28;20466;-74
2021/05/24 03:24:24;;;;;;;1.50;0.70;;;11.10;73.10;;;;;;5029067;28;20390;-75
2021/05/24 03:26:50;;;;;;;2.38;0.60;;;11.10;72.70;;;;;;5114821;27;20407;-75
2021/05/24 03:29:16;;;;;;;1.80;0.80;;;11.20;72.50;;;;;;5029145;28;20878;-74
2021/05/24 03:31:42;;;;;;;2.15;0.50;;;11.20;72.20;;;;;;5029586;28;20392;-75
2021/05/24 03:34:07;;;;;;;2.17;0.70;;;11.30;72.60;;;;;;5029073;28;20375;-75
2021/05/24 03:36:33;;;;;;;1.98;0.93;;;11.30;71.80;;;;;;5114524;27;20390;-75
2021/05/24 03:38:58;;;;;;;1.50;0.60;;;11.30;72.10;;;;;;5029127;28;20383;-73
2021/05/24 03:41:24;;;;;;;1.50;0.70;;;11.40;71.50;;;;;;5029212;28;20384;-75
2021/05/24 03:43:49;;;;;;;3.50;0.73;;;11.40;71.50;;;;;;5029303;28;20426;-74
2021/05/24 03:46:15;;;;;;;5.03;0.70;;;11.40;72.60;;;;;;5028729;28;20893;-75
2021/05/24 03:48:41;;;;;;;1.55;0.50;;;11.30;72.10;;;;;;5028768;28;20384;-75
2021/05/24 03:51:08;;;;;;;5.57;0.60;;;11.30;73.20;;;;;;5028594;28;20777;-74
2021/05/24 03:53:34;;;;;;;2.25;0.57;;;11.40;71.40;;;;;;5029137;28;20380;-75
2021/05/24 03:56:00;;;;;;;2.77;0.60;;;11.40;71.10;;;;;;5028651;28;20379;-75
2021/05/24 03:58:26;;;;;;;1.65;0.60;;;11.50;71.00;;;;;;5028597;28;20381;-75
2021/05/24 04:00:52;;;;;;;5.65;0.90;;;11.40;72.20;;;;;;5028498;28;20383;-74
2021/05/24 04:03:17;;;;;;;4.07;0.73;;;11.50;70.80;;;;;;5028396;28;20371;-75
2021/05/24 04:05:46;;;;;;;2.10;0.90;;;11.60;71.20;;;;;;5028891;28;20428;-75
2021/05/24 04:08:12;;;;;;;2.83;0.70;;;11.60;71.10;;;;;;5025354;28;20767;-74
2021/05/24 04:10:43;;;;;;;2.73;0.70;;;11.60;71.50;;;;;;5028723;28;20375;-76
2021/05/24 04:13:08;;;;;;;2.67;0.80;;;11.60;71.60;;;;;;5028006;28;20383;-75
2021/05/24 04:15:34;;;;;;;3.43;0.70;;;11.70;70.20;;;;;;5029116;28;20455;-75
2021/05/24 04:18:02;;;;;;;3.17;0.50;;;11.80;69.80;;;;;;5027911;28;20383;-74
2021/05/24 04:20:28;;;;;;;3.42;0.77;;;11.90;69.10;;;;;;5028772;28;20375;-76
2021/05/24 04:22:53;;;;;;;3.87;0.70;;;11.90;70.30;;;;;;5028106;28;20428;-74
2021/05/24 04:25:19;;;;;;;3.70;0.90;;;11.90;69.50;;;;;;5028485;28;20422;-76
2021/05/24 04:27:46;;;;;;;3.63;0.80;;;11.90;69.70;;;;;;5027672;28;20720;-76
2021/05/24 04:30:14;;;;;;;1.23;0.55;;;11.90;70.10;;;;;;5113955;27;20724;-74
2021/05/24 04:32:40;;;;;;;1.42;0.43;;;12.00;68.60;;;;;;5113323;27;20418;-73
2021/05/24 04:35:08;;;;;;;2.93;0.70;;;12.00;69.40;;;;;;5113615;27;20844;-74
2021/05/24 04:37:34;;;;;;;3.03;0.70;;;12.00;69.20;;;;;;5027506;28;20403;-75
2021/05/24 04:39:59;;;;;;;3.00;0.70;;;12.00;69.40;;;;;;5113508;27;20727;-75
2021/05/24 04:42:25;;;;;;;1.70;0.60;;;12.10;68.60;;;;;;5028175;28;20467;-75
2021/05/24 04:44:51;;;;;;;3.67;0.63;;;12.00;68.90;;;;;;5028529;28;20379;-74
2021/05/24 04:47:17;;;;;;;2.53;0.70;;;12.00;69.30;;;;;;5027461;28;20425;-75
2021/05/24 04:49:48;;;;;;;2.30;0.80;;;12.10;68.20;;;;;;5027783;28;20375;-74
2021/05/24 04:52:14;;;;;;;1.25;0.50;;;12.20;67.70;;;;;;5028250;28;20381;-75
2021/05/24 04:54:40;;;;;;;1.87;0.97;;;12.10;68.40;;;;;;5027805;28;20852;-74
2021/05/24 04:57:06;;;;;;;5.30;1.10;;;12.20;68.50;;;;;;5027730;28;20772;-75
2021/05/24 04:59:31;;;;;;;1.58;0.50;;;12.20;68.30;;;;;;5027328;28;20708;-75
2021/05/24 05:01:56;;;;;;;1.70;0.60;;;12.20;68.40;;;;;;5113092;27;20403;-75
2021/05/24 05:04:22;;;;;;;4.07;0.80;;;12.30;67.80;;;;;;5113035;27;20379;-75
2021/05/24 05:06:47;;;;;;;2.97;0.50;;;12.30;67.50;;;;;;5027136;28;20864;-75
2021/05/24 05:09:13;;;;;;;2.03;0.80;;;12.20;68.40;;;;;;5027752;28;20384;-75
2021/05/24 05:11:39;;;;;;;3.07;0.70;;;12.40;67.60;;;;;;5027421;28;20847;-74
2021/05/24 05:14:04;;;;;;;1.95;0.85;;;12.40;67.60;;;;;;5027959;28;20411;-75
2021/05/24 05:16:30;;;;;;;1.58;0.50;;;12.40;68.20;;;;;;5027229;28;20379;-75
2021/05/24 05:18:56;;;;;;;2.10;0.50;;;12.60;66.80;;;;;;5112961;27;20383;-74
2021/05/24 05:21:22;;;;;;;3.35;0.75;;;12.70;67.10;;;;;;5112524;27;20395;-74
2021/05/24 05:23:48;;;;;;;2.33;0.60;;;12.80;66.70;;;;;;5027252;28;20463;-75
2021/05/24 05:26:13;;;;;;;1.35;0.50;;;12.80;65.30;;;;;;5027289;28;20472;-74
2021/05/24 05:28:39;;;;;;;1.85;0.70;;;12.80;65.80;;;;;;5025913;28;20483;-76
2021/05/24 05:31:06;;;;;;;3.55;0.70;;;12.80;65.70;;;;;;5027795;28;20382;-74
2021/05/24 05:33:31;;;;;;;2.50;0.75;;;12.90;65.30;;;;;;5113090;28;20399;-75
2021/05/24 05:35:58;;;;;;;2.50;0.63;;;13.00;65.80;;;;;;5027847;28;20475;-75
2021/05/24 05:38:24;;;;;;;1.63;0.65;;;13.10;65.50;;;;;;5027110;28;20375;-75
2021/05/24 05:40:52;;;;;;;3.27;0.70;;;13.20;64.50;;;;;;5027886;28;20435;-76
2021/05/24 05:43:18;;;;;;;2.83;0.63;;;13.10;65.10;;;;;;5027491;28;20474;-76
2021/05/24 05:45:44;;;;;;;1.70;0.52;;;13.00;65.50;;;;;;5027740;28;20808;-75
2021/05/24 05:48:11;;;;;;;3.40;0.60;;;13.10;64.50;;;;;;5112136;28;20452;-75
2021/05/24 05:50:36;;;;;;;3.95;0.65;;;13.10;65.30;;;;;;5027504;28;20466;-75
2021/05/24 05:53:02;;;;;;;4.33;0.63;;;13.10;64.70;;;;;;5026949;28;20792;-75
2021/05/24 05:55:28;;;;;;;4.35;0.93;;;13.20;63.60;;;;;;5027100;28;20383;-76
2021/05/24 05:57:54;;;;;;;3.07;0.90;;;13.10;65.00;;;;;;5111743;28;20702;-76
2021/05/24 06:00:20;;;;;;;2.30;0.60;;;13.10;65.00;;;;;;5112099;28;20394;-75
2021/05/24 06:02:45;;;;;;;2.30;0.70;;;13.00;64.90;;;;;;5027195;28;20428;-75
2021/05/24 06:05:14;;;;;;;2.10;0.77;;;13.40;62.60;;;;;;5027002;28;20462;-74
2021/05/24 06:07:41;;;;;;;3.65;0.70;;;13.40;62.40;;;;;;5111868;28;20387;-75
2021/05/24 06:10:11;;;;;;;3.80;0.82;;;13.40;63.20;;;;;;5026958;28;20383;-76
2021/05/24 06:12:37;;;;;;;2.00;0.63;;;13.50;63.10;;;;;;5027200;28;20922;-75
2021/05/24 06:15:03;;;;;;;3.28;0.68;;;13.60;62.10;;;;;;5027084;28;20392;-75
2021/05/24 06:17:28;;;;;;;3.00;0.90;;;13.60;62.90;;;;;;5026579;28;20372;-75
2021/05/24 06:19:54;;;;;;;2.27;0.70;;;13.80;61.20;;;;;;5112021;28;20387;-75
2021/05/24 06:22:20;;;;;;;2.10;0.60;;;13.80;60.80;;;;;;5026933;28;20375;-75
2021/05/24 06:24:45;;;;;;;1.48;0.60;;;13.80;60.30;;;;;;5026331;28;20405;-76
2021/05/24 06:27:11;;;;;;;1.13;0.52;;;13.90;60.20;;;;;;5025871;28;20415;-75
2021/05/24 06:29:37;;;;;;;3.00;0.70;;;14.00;58.90;;;;;;5026041;28;20387;-76
2021/05/24 06:32:02;;;;;;;1.80;0.50;;;13.90;60.10;;;;;;5026264;28;20375;-75
2021/05/24 06:34:28;;;;;;;9.95;0.70;;;14.00;59.70;;;;;;5026485;28;20394;-75
2021/05/24 06:36:53;;;;;;;2.70;0.50;;;14.20;57.00;;;;;;5029082;28;20391;-75
2021/05/24 06:39:20;;;;;;;4.10;0.70;;;14.20;58.60;;;;;;5115065;27;20383;-74
2021/05/24 06:41:47;;;;;;;1.83;0.57;;;14.30;58.90;;;;;;5029229;28;20383;-76
2021/05/24 06:44:12;;;;;;;2.10;0.63;;;14.30;58.40;;;;;;5115063;27;20750;-76
2021/05/24 06:46:38;;;;;;;1.70;0.60;;;14.20;58.80;;;;;;5028721;28;20463;-75
2021/05/24 06:49:03;;;;;;;2.77;0.70;;;14.20;59.80;;;;;;5029172;28;20439;-76
2021/05/24 06:51:29;;;;;;;2.33;0.70;;;14.20;58.70;;;;;;5029254;28;20996;-76
2021/05/24 06:53:55;;;;;;;2.00;0.60;;;14.10;59.80;;;;;;5029175;28;20866;-76
2021/05/24 06:56:21;;;;;;;3.40;0.57;;;14.40;57.30;;;;;;5029253;28;20383;-75
2021/05/24 06:58:46;;;;;;;4.68;1.20;;;14.40;58.30;;;;;;5028542;28;21078;-75
2021/05/24 07:01:13;;;;;;;2.45;0.70;;;14.60;57.70;;;;;;5027890;28;20395;-75
2021/05/24 07:03:39;;;;;;;3.25;0.60;;;14.50;58.20;;;;;;5028949;28;20403;-76
2021/05/24 07:06:05;;;;;;;0.93;0.50;;;14.40;58.10;;;;;;5028663;28;20407;-75
2021/05/24 07:08:30;;;;;;;4.83;0.77;;;14.60;58.20;;;;;;5027225;28;20380;-74
2021/05/24 07:10:56;;;;;;;0.93;0.47;;;14.60;59.20;;;;;;5027820;28;20422;-75
2021/05/24 07:13:21;;;;;;;1.55;0.60;;;14.70;58.80;;;;;;5027964;28;20379;-76
2021/05/24 07:15:47;;;;;;;3.60;0.67;;;14.80;57.90;;;;;;5027357;28;20824;-75
2021/05/24 07:18:13;;;;;;;3.43;0.60;;;14.80;57.90;;;;;;5027147;28;20470;-75
2021/05/24 07:20:38;;;;;;;3.30;0.55;;;15.00;57.40;;;;;;5028104;28;20418;-75
2021/05/24 07:23:04;;;;;;;2.95;0.60;;;14.90;58.00;;;;;;5027463;28;20375;-75
2021/05/24 07:25:29;;;;;;;2.57;0.67;;;15.00;56.20;;;;;;5028125;28;20407;-75
2021/05/24 07:27:55;;;;;;;7.87;1.23;;;15.10;56.50;;;;;;5027194;28;20417;-76
2021/05/24 07:30:21;;;;;;;3.85;1.02;;;15.10;58.10;;;;;;5113179;27;20387;-76
2021/05/24 07:32:46;;;;;;;3.17;0.63;;;15.10;58.80;;;;;;5028262;28;20375;-76
2021/05/24 07:35:13;;;;;;;1.80;0.50;;;15.20;59.10;;;;;;5027795;28;20384;-76
2021/05/24 07:37:39;;;;;;;2.30;0.75;;;15.40;56.20;;;;;;5028500;28;20382;-74
2021/05/24 07:40:07;;;;;;;2.80;0.80;;;15.40;56.40;;;;;;5029073;28;20466;-75
2021/05/24 07:42:33;;;;;;;3.35;0.70;;;15.40;56.10;;;;;;5029451;28;20375;-76
2021/05/24 07:44:58;;;;;;;3.07;0.67;;;15.40;57.70;;;;;;5028740;28;20444;-76
2021/05/24 07:47:24;;;;;;;2.33;0.50;;;15.50;56.60;;;;;;5028355;28;20411;-76
2021/05/24 07:49:49;;;;;;;3.38;0.73;;;15.60;55.90;;;;;;5114420;27;20421;-76
2021/05/24 07:52:15;;;;;;;2.50;0.63;;;15.50;57.30;;;;;;5029193;28;20747;-76
2021/05/24 07:54:41;;;;;;;2.03;0.77;;;15.80;56.10;;;;;;5028904;28;20375;-76
2021/05/24 07:57:07;;;;;;;3.63;0.68;;;15.90;56.20;;;;;;5028734;28;20773;-76
2021/05/24 07:59:33;;;;;;;0.70;0.40;;;16.10;55.20;;;;;;5029427;28;20380;-75
2021/05/24 08:02:00;;;;;;;3.50;0.63;;;16.20;55.50;;;;;;5114099;27;20398;-77
2021/05/24 08:04:26;;;;;;;5.00;0.67;;;16.20;54.60;;;;;;5029022;28;20379;-75
2021/05/24 08:06:52;;;;;;;2.27;1.10;;;16.40;53.20;;;;;;5028238;28;20771;-76
2021/05/24 08:09:17;;;;;;;5.47;0.88;;;16.40;53.70;;;;;;5028661;28;20419;-76
2021/05/24 08:11:43;;;;;;;2.22;0.55;;;16.50;51.60;;;;;;5028524;28;20379;-77
2021/05/24 08:14:14;;;;;;;2.72;0.77;;;16.40;52.10;;;;;;5029151;28;20403;-77
2021/05/24 08:16:40;;;;;;;7.37;1.07;;;16.30;54.10;;;;;;5027296;28;20904;-76
2021/05/24 08:19:05;;;;;;;2.53;0.80;;;16.40;56.20;;;;;;5028732;28;20380;-77
2021/05/24 08:21:31;;;;;;;3.97;0.83;;;16.70;51.60;;;;;;5113729;27;20399;-76
2021/05/24 08:23:56;;;;;;;2.00;0.60;;;16.70;53.00;;;;;;5113504;27;20499;-76
2021/05/24 08:26:22;;;;;;;1.73;0.60;;;16.80;53.30;;;;;;5113571;27;20484;-77
2021/05/24 08:28:47;;;;;;;3.63;0.68;;;16.90;53.50;;;;;;5027789;28;20735;-77
2021/05/24 08:31:13;;;;;;;4.23;0.60;;;16.90;52.40;;;;;;5028795;28;20873;-76
2021/05/24 08:33:38;;;;;;;4.55;0.70;;;16.90;52.60;;;;;;5028346;28;20383;-77
2021/05/24 08:36:04;;;;;;;3.03;0.60;;;17.00;52.70;;;;;;5113942;27;20736;-76
2021/05/24 08:38:31;;;;;;;2.05;0.60;;;17.10;50.00;;;;;;5027787;28;20415;-77
2021/05/24 08:40:57;;;;;;;6.38;0.77;;;17.30;53.90;;;;;;5028647;28;20413;-77
2021/05/24 08:43:23;;;;;;;3.57;0.60;;;16.90;50.50;;;;;;5028185;28;20429;-76
2021/05/24 08:45:48;;;;;;;6.40;0.80;;;16.70;51.80;;;;;;5028184;28;20872;-76
2021/05/24 08:48:14;;;;;;;1.55;0.75;;;16.60;50.40;;;;;;5027665;28;20442;-77
2021/05/24 08:50:40;;;;;;;3.88;0.70;;;16.60;49.80;;;;;;5113908;27;20807;-76
2021/05/24 08:53:09;;;;;;;2.88;0.68;;;16.50;52.30;;;;;;5027911;28;20422;-77
2021/05/24 08:55:35;;;;;;;2.72;0.70;;;16.40;51.00;;;;;;5028323;28;20425;-76
2021/05/24 08:58:00;;;;;;;4.00;0.90;;;16.40;52.70;;;;;;5026488;28;20375;-78
2021/05/24 09:00:26;;;;;;;4.30;0.80;;;16.40;52.90;;;;;;5026936;28;20469;-76
2021/05/24 09:02:54;;;;;;;7.15;0.60;;;16.30;53.10;;;;;;5027763;28;20745;-76
2021/05/24 09:05:20;;;;;;;1.42;0.50;;;16.30;53.40;;;;;;5027489;28;20394;-76
2021/05/24 09:07:54;;;;;;;3.85;0.73;;;16.20;52.20;;;;;;5043440;27;20383;-76
2021/05/24 09:10:25;;;;;;;4.03;0.80;;;16.10;54.60;;;;;;5026635;28;20387;-75
2021/05/24 09:12:51;;;;;;;2.10;0.45;;;16.10;53.50;;;;;;5027205;28;20371;-75
2021/05/24 09:15:19;;;;;;;1.52;0.68;;;16.00;52.20;;;;;;5027310;28;20395;-78
2021/05/24 09:17:52;;;;;;;3.10;0.70;;;16.10;52.60;;;;;;5025934;28;21311;-78
2021/05/24 09:20:23;;;;;;;4.60;0.60;;;16.10;54.40;;;;;;5023855;28;20399;-77
2021/05/24 09:23:14;;;;;;;3.88;0.80;;;16.10;53.70;;;;;;5027494;28;20380;-77
2021/05/24 09:25:46;;;;;;;2.38;0.63;;;16.10;54.20;;;;;;5027081;28;20407;-77
2021/05/24 09:28:36;;;;;;;7.50;0.90;;;16.10;53.40;;;;;;5026761;28;20391;-77
2021/05/24 09:31:14;;;;;;;2.10;0.60;;;16.10;53.40;;;;;;5027363;28;20389;-76
2021/05/24 09:33:45;;;;;;;3.10;0.70;;;16.20;53.50;;;;;;5026000;28;20399;-76
2021/05/24 09:36:12;;;;;;;4.95;0.88;;;16.20;53.60;;;;;;5025523;28;20406;-76
2021/05/24 09:38:48;;;;;;;1.30;0.57;;;16.30;54.00;;;;;;5025924;28;20387;-77
2021/05/24 09:41:17;;;;;;;3.20;0.80;;;16.30;51.80;;;;;;5027054;28;20384;-76
2021/05/24 09:43:52;;;;;;;4.20;0.65;;;16.30;53.30;;;;;;5027903;28;20512;-75
2021/05/24 09:46:23;;;;;;;1.98;0.65;;;16.20;53.40;;;;;;5026807;28;20411;-78
2021/05/24 09:48:54;;;;;;;2.75;0.60;;;16.20;52.80;;;;;;5026264;28;20849;-76
2021/05/24 09:51:23;;;;;;;4.82;0.70;;;16.20;54.70;;;;;;5027166;28;20440;-76
2021/05/24 09:54:12;;;;;;;4.47;0.80;;;16.30;52.90;;;;;;5026988;28;20437;-78
2021/05/24 09:56:45;;;;;;;3.17;0.73;;;16.30;52.90;;;;;;5027145;28;20375;-76
2021/05/24 09:59:15;;;;;;;3.97;0.88;;;16.30;52.60;;;;;;5027166;28;20415;-77
2021/05/24 10:01:50;;;;;;;3.15;0.80;;;16.30;53.20;;;;;;5026123;28;20470;-76
2021/05/24 10:04:22;;;;;;;2.53;0.75;;;16.40;51.90;;;;;;5026423;28;20394;-77
2021/05/24 10:06:48;;;;;;;2.25;1.20;;;16.60;52.80;;;;;;5026645;28;20399;-76
2021/05/24 10:09:17;;;;;;;1.52;0.60;;;16.80;52.30;;;;;;5026658;28;20398;-76
2021/05/24 10:11:45;;;;;;;3.55;0.80;;;16.90;54.60;;;;;;5029392;28;20390;-76
2021/05/24 10:14:16;;;;;;;3.88;0.80;;;16.70;51.20;;;;;;5030042;28;20709;-76
2021/05/24 10:16:47;;;;;;;2.33;0.73;;;16.70;52.40;;;;;;5028596;28;20402;-78
2021/05/24 10:19:15;;;;;;;3.60;0.90;;;16.80;55.60;;;;;;5029957;28;20455;-76
2021/05/24 10:21:42;;;;;;;2.83;0.63;;;16.60;53.40;;;;;;5115490;27;20879;-76
2021/05/24 10:24:08;;;;;;;1.40;0.50;;;16.60;54.00;;;;;;5030410;28;20716;-76
2021/05/24 10:26:36;;;;;;;4.10;0.85;;;16.80;54.50;;;;;;5114653;27;20407;-76
2021/05/24 10:29:03;;;;;;;2.50;0.93;;;16.80;53.50;;;;;;5030059;28;20463;-76
2021/05/24 10:31:31;;;;;;;2.70;0.55;;;16.70;53.30;;;;;;5029687;28;20386;-76
2021/05/24 10:34:09;;;;;;;2.30;0.60;;;16.60;53.50;;;;;;5030312;28;20404;-76
2021/05/24 10:36:35;;;;;;;2.75;0.80;;;16.40;51.20;;;;;;5028751;28;20401;-76
2021/05/24 10:39:28;;;;;;;1.67;0.65;;;16.20;52.20;;;;;;5115544;27;20383;-76
2021/05/24 10:42:01;;;;;;;5.53;0.85;;;16.00;54.70;;;;;;5027611;28;20736;-76
2021/05/24 10:44:38;;;;;;;4.50;0.80;;;15.90;55.50;;;;;;5029505;28;20384;-76
2021/05/24 10:47:15;;;;;;;3.35;0.80;;;15.80;54.80;;;;;;5029477;28;20403;-78
2021/05/24 10:50:01;;;;;;;4.40;0.90;;;15.80;58.20;;;;;;5028100;28;20391;-81
2021/05/24 10:52:27;;;;;;;2.78;0.85;;;15.60;60.60;;;;;;5029532;28;20911;-84
2021/05/24 10:54:53;;;;;;;6.88;0.85;;;15.40;61.70;;;;;;5027824;28;20478;-75
2021/05/24 10:57:20;;;;;;;3.53;0.70;;;15.30;63.00;;;;;;5114021;27;20391;-73
2021/05/24 10:59:51;;;;;;;2.45;0.77;;;15.10;61.90;;;;;;5029433;28;20387;-77
2021/05/24 11:02:32;;;;;;;3.73;0.80;;;15.20;64.00;;;;;;5028861;28;20402;-78
2021/05/24 11:05:01;;;;;;;4.73;0.70;;;15.20;62.30;;;;;;5029650;28;20474;-76
2021/05/24 11:07:47;;;;;;;2.63;0.65;;;15.10;60.60;;;;;;5028998;28;20407;-77
2021/05/24 11:10:18;;;;;;;2.25;0.50;;;15.00;63.90;;;;;;5029413;28;20449;-76
2021/05/24 11:12:51;;;;;;;1.95;0.60;;;14.70;63.30;;;;;;5028987;28;20766;-75
2021/05/24 11:15:19;;;;;;;2.42;0.70;;;14.70;64.90;;;;;;5027673;28;20955;-76
2021/05/24 11:18:03;;;;;;;2.40;0.68;;;14.60;67.10;;;;;;5027762;28;20402;-76
2021/05/24 11:20:55;;;;;;;1.80;0.50;;;14.50;64.90;;;;;;5028517;28;20390;-75
2021/05/24 11:26:16;;;;;;;2.70;0.65;;;14.80;68.90;;;;;;5029265;28;20403;-77
2021/05/24 11:28:51;;;;;;;1.13;0.70;;;14.80;69.00;;;;;;5026922;28;20394;-76
2021/05/24 11:31:19;;;;;;;2.93;0.80;;;14.80;65.90;;;;;;5029115;28;20444;-76
2021/05/24 11:33:48;;;;;;;2.65;1.00;;;14.80;66.00;;;;;;5027059;28;20398;-77
2021/05/24 11:36:15;;;;;;;2.67;0.60;;;14.80;65.60;;;;;;5029213;28;20383;-76
2021/05/24 11:39:05;;;;;;;1.80;0.50;;;14.90;64.90;;;;;;5114089;27;20474;-75
2021/05/24 11:41:32;;;;;;;4.18;0.80;;;14.80;63.00;;;;;;5029449;28;20387;-76
2021/05/24 11:44:03;;;;;;;2.03;0.50;;;14.90;63.10;;;;;;5114269;27;20383;-75
2021/05/24 11:47:08;;;;;;;1.73;0.73;;;14.90;60.80;;;;;;5028959;28;20477;-76
2021/05/24 11:49:38;;;;;;;3.67;0.70;;;14.90;62.30;;;;;;5026171;28;20442;-76
2021/05/24 11:52:13;;;;;;;1.83;0.67;;;15.00;64.40;;;;;;5007080;28;20500;-75
2021/05/24 11:54:39;;;;;;;2.67;0.77;;;15.10;65.80;;;;;;5094367;28;20388;-75
2021/05/24 11:57:08;;;;;;;2.20;0.70;;;15.10;65.90;;;;;;5013678;28;20431;-76
2021/05/24 11:59:34;;;;;;;2.80;0.60;;;15.00;63.60;;;;;;5025091;28;20872;-76
2021/05/24 12:02:03;;;;;;;2.97;0.80;;;14.70;65.20;;;;;;5028515;28;20371;-75
2021/05/24 12:04:31;;;;;;;2.20;0.60;;;14.60;65.20;;;;;;5025165;28;20396;-74
2021/05/24 12:07:11;;;;;;;2.47;0.80;;;14.40;66.60;;;;;;5028208;28;20403;-76
2021/05/24 12:09:42;;;;;;;2.03;1.00;;;14.40;68.40;;;;;;5028728;28;20392;-76
2021/05/24 12:12:15;;;;;;;3.30;0.63;;;14.20;69.30;;;;;;5114034;27;20383;-75
2021/05/24 12:14:49;;;;;;;1.33;0.80;;;14.10;67.90;;;;;;5028622;28;20456;-75
2021/05/24 12:17:16;;;;;;;1.67;0.70;;;14.10;71.40;;;;;;5028152;28;20915;-75
2021/05/24 12:19:43;;;;;;;2.20;0.73;;;14.10;71.10;;;;;;5028206;28;20694;-74
2021/05/24 12:22:12;;;;;;;3.05;0.82;;;13.90;72.70;;;;;;5028553;28;20687;-74
2021/05/24 12:24:40;;;;;;;3.10;0.80;;;13.80;73.60;;;;;;5113255;27;20472;-74
2021/05/24 12:27:08;;;;;;;1.85;0.80;;;13.90;74.90;;;;;;5113706;27;20404;-74
2021/05/24 12:29:54;;;;;;;1.90;0.70;;;13.80;76.30;;;;;;5028232;28;20436;-76
2021/05/24 12:32:38;;;;;;;5.65;0.77;;;13.60;75.40;;;;;;5026274;28;20384;-75
2021/05/24 12:35:09;;;;;;;2.55;0.70;;;13.50;77.80;;;;;;5027477;28;20387;-75
2021/05/24 12:37:39;;;;;;;1.75;0.70;;;13.40;79.00;;;;;;5112828;27;20405;-75
2021/05/24 12:40:08;;;;;;;1.50;0.70;;;13.40;79.90;;;;;;5026883;28;20429;-75
2021/05/24 12:42:34;;;;;;;2.60;0.60;;;13.30;80.60;;;;;;5027460;28;20379;-74
2021/05/24 12:45:05;;;;;;;2.95;0.77;;;13.20;82.50;;;;;;5026927;28;20582;-75
2021/05/24 12:47:31;;;;;;;1.35;0.63;;;13.00;82.90;;;;;;5026002;28;20433;-75
2021/05/24 12:50:12;;;;;;;0.83;0.67;;;13.10;83.90;;;;;;5027973;28;20383;-77
2021/05/24 12:52:37;;;;;;;2.05;0.77;;;12.90;84.80;;;;;;5027311;28;20413;-76
2021/05/24 12:55:13;;;;;;;1.60;0.50;;;12.80;85.00;;;;;;5027823;28;20463;-77